createdAt,value
2023-03-26T00:00:54.010Z,7.42
2023-03-26T00:03:20.442Z,7.43
2023-03-26T00:05:48.139Z,7.45
2023-03-26T00:08:16.905Z,7.44
2023-03-26T00:10:44.129Z,7.45
2023-03-26T00:13:10.886Z,7.45
2023-03-26T00:15:37.672Z,7.44
2023-03-26T00:18:04.170Z,7.43
2023-03-26T00:20:32.746Z,7.40
2023-03-26T00:23:01.490Z,7.37
2023-03-26T00:25:28.382Z,7.34
2023-03-26T00:27:54.743Z,7.32
2023-03-26T00:30:21.364Z,7.29
2023-03-26T00:32:53.354Z,7.26
2023-03-26T00:35:20.705Z,7.26
2023-03-26T00:37:47.070Z,7.28
2023-03-26T00:40:13.645Z,7.29
2023-03-26T00:42:39.982Z,7.30
2023-03-26T00:45:07.367Z,7.29
2023-03-26T00:47:34.518Z,7.25
2023-03-26T00:50:01.426Z,7.21
2023-03-26T00:52:28.664Z,7.19
2023-03-26T00:54:55.801Z,7.18
2023-03-26T00:57:34.645Z,7.20
2023-03-26T01:00:15.780Z,7.19
2023-03-26T01:02:45.080Z,7.15
2023-03-26T01:05:36.266Z,7.16
2023-03-26T01:08:15.110Z,7.15
2023-03-26T01:10:43.446Z,7.19
2023-03-26T01:13:10.011Z,7.20
2023-03-26T01:15:37.340Z,7.21
2023-03-26T01:18:09.770Z,7.22
2023-03-26T01:20:46.520Z,7.23
2023-03-26T01:23:20.253Z,7.26
2023-03-26T01:25:57.759Z,7.27
2023-03-26T01:28:30.671Z,7.31
2023-03-26T01:31:09.976Z,7.29
2023-03-26T01:33:46.802Z,7.29
2023-03-26T01:36:29.097Z,7.27
2023-03-26T01:39:07.942Z,7.26
2023-03-26T01:41:47.208Z,7.27
2023-03-26T01:44:28.807Z,7.31
2023-03-26T01:46:55.606Z,7.34
2023-03-26T01:49:22.052Z,7.33
2023-03-26T01:51:48.687Z,7.33
2023-03-26T01:54:19.604Z,7.36
2023-03-26T01:57:07.467Z,7.36
2023-03-26T01:59:48.303Z,7.35
2023-03-26T02:02:33.084Z,7.37
2023-03-26T02:05:17.392Z,7.38
2023-03-26T02:07:55.888Z,7.34
2023-03-26T02:10:30.770Z,7.32
2023-03-26T02:12:58.873Z,7.28
2023-03-26T02:15:25.492Z,7.27
2023-03-26T02:17:52.869Z,7.20
2023-03-26T02:20:20.483Z,7.16
2023-03-26T02:22:48.205Z,7.14
2023-03-26T02:25:17.664Z,7.12
2023-03-26T02:27:45.139Z,7.14
2023-03-26T02:30:15.674Z,7.16
2023-03-26T02:32:43.750Z,7.18
2023-03-26T02:35:11.896Z,7.16
2023-03-26T02:37:39.059Z,7.21
2023-03-26T02:40:11.016Z,7.24
2023-03-26T02:42:38.309Z,7.25
2023-03-26T02:45:06.682Z,7.26
2023-03-26T02:47:33.831Z,7.27
2023-03-26T02:50:01.337Z,7.31
2023-03-26T02:52:27.668Z,7.35
2023-03-26T02:54:54.115Z,7.37
2023-03-26T02:57:20.839Z,7.36
2023-03-26T02:59:47.176Z,7.42
2023-03-26T03:02:14.557Z,7.47
2023-03-26T03:04:41.010Z,7.53
2023-03-26T03:07:07.645Z,7.56
2023-03-26T03:09:34.659Z,7.59
2023-03-26T03:12:01.015Z,7.61
2023-03-26T03:14:27.323Z,7.62
2023-03-26T03:16:53.834Z,7.65
2023-03-26T03:19:20.530Z,7.66
2023-03-26T03:21:46.842Z,7.68
2023-03-26T03:24:13.861Z,7.69
2023-03-26T03:26:42.171Z,7.71
2023-03-26T03:29:09.238Z,7.72
2023-03-26T03:31:35.842Z,7.72
2023-03-26T03:34:02.192Z,7.74
2023-03-26T03:36:30.268Z,7.74
2023-03-26T03:39:02.138Z,7.75
2023-03-26T03:41:29.333Z,7.75
2023-03-26T03:43:55.715Z,7.75
2023-03-26T03:46:22.080Z,7.75
2023-03-26T03:48:49.736Z,7.75
2023-03-26T03:51:18.077Z,7.76
2023-03-26T03:53:45.935Z,7.76
2023-03-26T03:56:14.447Z,7.75
2023-03-26T03:58:41.585Z,7.77
2023-03-26T04:01:07.983Z,7.76
2023-03-26T04:03:38.521Z,7.77
2023-03-26T04:06:06.846Z,7.78
2023-03-26T04:08:34.903Z,7.79
2023-03-26T04:11:02.258Z,7.79
2023-03-26T04:13:28.670Z,7.79
2023-03-26T04:15:56.073Z,7.79
2023-03-26T04:18:23.250Z,7.81
2023-03-26T04:20:49.752Z,7.80
2023-03-26T04:23:18.307Z,7.82
2023-03-26T04:25:49.179Z,7.80
2023-03-26T04:28:42.242Z,7.82
2023-03-26T04:31:13.738Z,7.81
2023-03-26T04:33:40.190Z,7.81
2023-03-26T04:36:07.242Z,7.82
2023-03-26T04:38:41.127Z,7.82
2023-03-26T04:41:07.775Z,7.84
2023-03-26T04:43:42.156Z,7.84
2023-03-26T04:46:10.419Z,7.85
2023-03-26T04:48:38.618Z,7.83
2023-03-26T04:51:09.797Z,7.82
2023-03-26T04:53:36.636Z,7.80
2023-03-26T04:56:11.991Z,7.78
2023-03-26T04:58:39.774Z,7.77
2023-03-26T05:01:10.176Z,7.75
2023-03-26T05:03:40.654Z,7.75
2023-03-26T05:06:07.401Z,7.76
2023-03-26T05:08:33.753Z,7.76
2023-03-26T05:11:00.234Z,7.76
2023-03-26T05:13:26.560Z,7.77
2023-03-26T05:15:52.925Z,7.77
2023-03-26T05:18:19.315Z,7.78
2023-03-26T05:20:46.390Z,7.80
2023-03-26T05:23:12.846Z,7.82
2023-03-26T05:25:39.221Z,7.82
2023-03-26T05:28:05.677Z,7.83
2023-03-26T05:30:32.159Z,7.81
2023-03-26T05:32:58.580Z,7.80
2023-03-26T05:35:25.027Z,7.79
2023-03-26T05:37:51.474Z,7.78
2023-03-26T05:40:17.988Z,7.77
2023-03-26T05:42:45.287Z,7.78
2023-03-26T05:45:13.777Z,7.78
2023-03-26T05:47:40.292Z,7.79
2023-03-26T05:50:08.214Z,7.81
2023-03-26T05:52:34.636Z,7.81
2023-03-26T05:55:01.084Z,7.81
2023-03-26T05:57:30.257Z,7.82
2023-03-26T05:59:56.596Z,7.83
2023-03-26T06:02:23.680Z,7.84
2023-03-26T06:04:50.783Z,7.85
2023-03-26T06:07:18.073Z,7.87
2023-03-26T06:09:45.066Z,7.90
2023-03-26T06:12:11.800Z,7.91
2023-03-26T06:14:38.221Z,7.90
2023-03-26T06:17:04.601Z,7.90
2023-03-26T06:19:30.915Z,7.90
2023-03-26T06:21:57.317Z,7.90
2023-03-26T06:24:23.736Z,7.93
2023-03-26T06:26:50.100Z,7.96
2023-03-26T06:29:16.506Z,7.99
2023-03-26T06:31:42.910Z,7.99
2023-03-26T06:34:09.306Z,8.02
2023-03-26T06:36:35.723Z,8.03
2023-03-26T06:39:02.214Z,8.06
2023-03-26T06:41:35.132Z,8.10
2023-03-26T06:44:01.518Z,8.11
2023-03-26T06:46:27.997Z,8.14
2023-03-26T06:48:54.382Z,8.15
2023-03-26T06:51:20.888Z,8.17
2023-03-26T06:53:47.292Z,8.16
2023-03-26T06:56:13.606Z,8.16
2023-03-26T06:58:39.934Z,8.18
2023-03-26T07:01:06.598Z,8.19
2023-03-26T07:03:33.031Z,8.18
2023-03-26T07:05:59.403Z,8.18
2023-03-26T07:08:26.536Z,8.20
2023-03-26T07:10:53.194Z,8.20
2023-03-26T07:13:19.784Z,8.25
2023-03-26T07:15:48.831Z,8.28
2023-03-26T07:18:15.524Z,8.32
2023-03-26T07:20:43.557Z,8.35
2023-03-26T07:23:11.581Z,8.38
2023-03-26T07:25:38.398Z,8.40
2023-03-26T07:28:24.386Z,8.43
2023-03-26T07:30:53.664Z,8.46
2023-03-26T07:33:45.514Z,8.49
2023-03-26T07:36:32.647Z,8.52
2023-03-26T07:39:11.017Z,8.56
2023-03-26T07:41:43.866Z,8.59
2023-03-26T07:44:22.437Z,8.62
2023-03-26T07:46:49.303Z,8.64
2023-03-26T07:49:17.759Z,8.63
2023-03-26T07:51:44.378Z,8.68
2023-03-26T07:54:11.138Z,8.70
2023-03-26T07:56:48.994Z,8.71
2023-03-26T07:59:26.737Z,8.73
2023-03-26T08:02:13.927Z,8.74
2023-03-26T08:04:40.467Z,8.70
2023-03-26T08:07:34.875Z,8.66
2023-03-26T08:10:04.192Z,8.70
2023-03-26T08:12:46.091Z,8.73
2023-03-26T08:15:29.518Z,8.78
2023-03-26T08:18:19.354Z,8.77
2023-03-26T08:20:49.287Z,8.78
2023-03-26T08:23:27.644Z,8.77
2023-03-26T08:26:19.076Z,8.75
2023-03-26T08:28:50.647Z,8.73
2023-03-26T08:31:19.431Z,8.71
2023-03-26T08:33:45.874Z,8.70
2023-03-26T08:36:12.256Z,8.70
2023-03-26T08:38:38.584Z,8.72
2023-03-26T08:41:24.827Z,8.74
2023-03-26T08:44:06.113Z,8.73
2023-03-26T08:46:38.038Z,8.73
2023-03-26T08:49:42.664Z,8.70
2023-03-26T08:52:49.232Z,8.67
2023-03-26T08:55:43.612Z,8.68
2023-03-26T08:58:43.544Z,8.71
2023-03-26T09:01:12.361Z,8.72
2023-03-26T09:04:12.220Z,8.68
2023-03-26T09:06:50.764Z,8.61
2023-03-26T09:09:29.889Z,8.57
2023-03-26T09:12:18.063Z,8.53
2023-03-26T09:14:53.622Z,8.55
2023-03-26T09:18:03.030Z,8.52
2023-03-26T09:20:38.536Z,8.56
2023-03-26T09:23:07.788Z,8.53
2023-03-26T09:25:56.102Z,8.48
2023-03-26T09:28:44.488Z,8.45
2023-03-26T09:31:32.858Z,8.45
2023-03-26T09:34:29.857Z,8.45
2023-03-26T09:37:24.491Z,8.46
2023-03-26T09:40:15.138Z,8.49
2023-03-26T09:43:00.931Z,8.58
2023-03-26T09:45:52.639Z,8.57
2023-03-26T09:48:48.347Z,8.61
2023-03-26T09:51:40.258Z,8.65
2023-03-26T09:54:44.554Z,8.67
2023-03-26T09:57:36.038Z,8.68
2023-03-26T10:00:23.977Z,8.63
2023-03-26T10:03:08.299Z,8.62
2023-03-26T10:06:11.832Z,8.58
2023-03-26T10:08:41.320Z,8.56
2023-03-26T10:11:18.812Z,8.49
2023-03-26T10:14:03.749Z,8.49
2023-03-26T10:16:42.526Z,8.42
2023-03-26T10:19:29.367Z,8.38
2023-03-26T10:22:09.195Z,8.35
2023-03-26T10:25:10.710Z,8.39
2023-03-26T10:28:07.194Z,8.49
2023-03-26T10:30:54.715Z,8.50
2023-03-26T10:33:46.328Z,8.51
2023-03-26T10:36:33.511Z,8.47
2023-03-26T10:39:37.055Z,8.50
2023-03-26T10:42:43.396Z,8.50
2023-03-26T10:45:25.617Z,8.53
2023-03-26T10:48:19.572Z,8.55
2023-03-26T10:50:51.816Z,8.60
2023-03-26T10:53:51.331Z,8.62
2023-03-26T10:56:30.067Z,8.61
2023-03-26T10:58:56.965Z,8.63
2023-03-26T11:02:01.662Z,8.61
2023-03-26T11:04:54.451Z,8.53
2023-03-26T11:07:43.991Z,8.46
2023-03-26T11:10:48.190Z,8.38
2023-03-26T11:13:42.625Z,8.44
2023-03-26T11:16:20.575Z,8.44
2023-03-26T11:19:05.886Z,8.43
2023-03-26T11:21:58.283Z,8.45
2023-03-26T11:24:54.132Z,8.40
2023-03-26T11:27:47.891Z,8.47
2023-03-26T11:30:48.433Z,8.46
2023-03-26T11:33:25.954Z,8.36
2023-03-26T11:36:06.485Z,8.39
2023-03-26T11:38:45.717Z,8.45
2023-03-26T11:41:22.505Z,8.45
2023-03-26T11:43:55.327Z,8.44
2023-03-26T11:46:23.609Z,8.46
2023-03-26T11:48:57.450Z,8.38
2023-03-26T11:51:32.843Z,8.34
2023-03-26T11:54:00.493Z,8.28
2023-03-26T11:56:33.991Z,8.29
2023-03-26T11:59:17.877Z,8.25
2023-03-26T12:01:52.535Z,8.28
2023-03-26T12:04:33.766Z,8.27
2023-03-26T12:07:13.885Z,8.29
2023-03-26T12:09:55.793Z,8.32
2023-03-26T12:12:26.589Z,8.33
2023-03-26T12:14:53.452Z,8.35
2023-03-26T12:17:34.690Z,8.38
2023-03-26T12:20:02.410Z,8.47
2023-03-26T12:22:43.394Z,8.56
2023-03-26T12:25:25.111Z,8.64
2023-03-26T12:28:05.501Z,8.73
2023-03-26T12:30:37.778Z,8.85
2023-03-26T12:33:05.365Z,8.99
2023-03-26T12:35:35.116Z,9.13
2023-03-26T12:38:22.154Z,9.24
2023-03-26T12:40:49.634Z,9.38
2023-03-26T12:44:54.770Z,9.46
2023-03-26T12:47:56.512Z,9.51
2023-03-26T12:49:18.775Z,9.53
2023-03-26T12:51:58.525Z,9.45
2023-03-26T12:54:36.024Z,9.48
2023-03-26T12:57:18.644Z,9.42
2023-03-26T12:59:45.061Z,9.40
2023-03-26T13:02:39.424Z,9.43
2023-03-26T13:05:23.688Z,9.44
2023-03-26T13:08:12.482Z,9.38
2023-03-26T13:10:57.775Z,9.39
2023-03-26T13:13:58.897Z,9.42
2023-03-26T13:16:53.135Z,9.52
2023-03-26T13:19:37.445Z,9.49
2023-03-26T13:22:25.470Z,9.54
2023-03-26T13:25:30.147Z,9.58
2023-03-26T13:28:10.763Z,9.66
2023-03-26T13:30:44.620Z,9.67
2023-03-26T13:33:38.186Z,9.63
2023-03-26T13:36:24.250Z,9.54
2023-03-26T13:39:24.559Z,9.58
2023-03-26T13:42:16.157Z,9.62
2023-03-26T13:44:52.753Z,9.56
2023-03-26T13:47:36.402Z,9.53
2023-03-26T13:50:30.296Z,9.56
2023-03-26T13:53:06.391Z,9.62
2023-03-26T13:55:47.443Z,9.62
2023-03-26T13:58:17.547Z,9.64
2023-03-26T14:01:07.805Z,9.64
2023-03-26T14:03:49.362Z,9.59
2023-03-26T14:06:33.883Z,9.61
2023-03-26T14:09:11.447Z,9.61
2023-03-26T14:11:51.871Z,9.61
2023-03-26T14:14:37.475Z,9.56
2023-03-26T14:17:17.985Z,9.51
2023-03-26T14:20:05.149Z,9.39
2023-03-26T14:22:44.329Z,9.30
2023-03-26T14:25:13.667Z,9.36
2023-03-26T14:28:19.281Z,9.34
2023-03-26T14:31:08.023Z,9.28
2023-03-26T14:33:34.665Z,9.22
2023-03-26T14:36:17.315Z,9.13
2023-03-26T14:38:50.139Z,9.12
2023-03-26T14:41:33.558Z,9.10
2023-03-26T14:44:09.140Z,9.08
2023-03-26T14:46:56.999Z,9.05
2023-03-26T14:50:04.743Z,9.11
2023-03-26T14:52:47.737Z,9.14
2023-03-26T14:55:35.351Z,9.08
2023-03-26T14:58:29.560Z,9.05
2023-03-26T15:01:08.031Z,8.87
2023-03-26T15:03:58.665Z,8.83
2023-03-26T15:06:45.190Z,8.85
2023-03-26T15:09:29.582Z,8.74
2023-03-26T15:12:13.650Z,8.71
2023-03-26T15:15:26.218Z,8.61
2023-03-26T15:18:11.667Z,8.59
2023-03-26T15:21:19.599Z,8.60
2023-03-26T15:24:07.944Z,8.63
2023-03-26T15:26:46.570Z,8.68
2023-03-26T15:29:42.206Z,8.73
2023-03-26T15:32:40.893Z,8.72
2023-03-26T15:35:16.851Z,8.77
2023-03-26T15:38:11.153Z,8.76
2023-03-26T15:40:50.801Z,8.72
2023-03-26T15:43:21.303Z,8.68
2023-03-26T15:46:24.468Z,8.64
2023-03-26T15:48:57.660Z,8.52
2023-03-26T15:51:47.417Z,8.40
2023-03-26T15:54:29.421Z,8.34
2023-03-26T15:57:08.900Z,8.26
2023-03-26T15:59:59.221Z,8.27
2023-03-26T16:02:50.225Z,8.26
2023-03-26T16:05:22.715Z,8.18
2023-03-26T16:08:04.696Z,8.14
2023-03-26T16:10:55.981Z,8.03
2023-03-26T16:13:22.645Z,7.98
2023-03-26T16:16:09.258Z,7.86
2023-03-26T16:18:43.874Z,7.83
2023-03-26T16:21:30.416Z,7.81
2023-03-26T16:24:07.401Z,7.83
2023-03-26T16:26:54.799Z,7.81
2023-03-26T16:29:22.613Z,7.81
2023-03-26T16:32:17.356Z,7.78
2023-03-26T16:35:12.829Z,7.74
2023-03-26T16:37:50.495Z,7.67
2023-03-26T16:40:17.068Z,7.64
2023-03-26T16:43:01.998Z,7.62
2023-03-26T16:45:37.825Z,7.61
2023-03-26T16:48:23.153Z,7.61
2023-03-26T16:51:18.566Z,7.59
2023-03-26T16:53:45.905Z,7.56
2023-03-26T16:56:16.710Z,7.55
2023-03-26T16:58:48.967Z,7.52
2023-03-26T17:01:42.976Z,7.51
2023-03-26T17:04:23.516Z,7.49
2023-03-26T17:07:13.966Z,7.42
2023-03-26T17:09:59.054Z,7.38
2023-03-26T17:12:47.799Z,7.27
2023-03-26T17:15:47.047Z,7.23
2023-03-26T17:18:27.512Z,7.23
2023-03-26T17:21:12.442Z,7.15
2023-03-26T17:24:04.079Z,7.06
2023-03-26T17:27:01.186Z,6.99
2023-03-26T17:29:51.974Z,6.96
2023-03-26T17:32:21.420Z,6.92
2023-03-26T17:34:50.896Z,6.87
2023-03-26T17:37:17.212Z,6.84
2023-03-26T17:39:43.590Z,6.80
2023-03-26T17:42:15.958Z,6.79
2023-03-26T17:44:51.927Z,6.77
2023-03-26T17:47:26.630Z,6.76
2023-03-26T17:50:04.244Z,6.70
2023-03-26T17:52:48.101Z,6.66
2023-03-26T17:55:19.815Z,6.61
2023-03-26T17:57:52.295Z,6.58
2023-03-26T18:00:26.587Z,6.54
2023-03-26T18:02:57.170Z,6.52
2023-03-26T18:05:28.032Z,6.50
2023-03-26T18:08:01.910Z,6.46
2023-03-26T18:11:02.937Z,6.40
2023-03-26T18:14:06.086Z,6.31
2023-03-26T18:16:45.910Z,6.22
2023-03-26T18:19:21.835Z,6.15
2023-03-26T18:21:59.571Z,6.10
2023-03-26T18:24:37.534Z,6.08
2023-03-26T18:27:22.148Z,6.07
2023-03-26T18:29:57.515Z,6.04
2023-03-26T18:32:33.480Z,6.05
2023-03-26T18:35:13.305Z,6.05
2023-03-26T18:37:40.291Z,6.06
2023-03-26T18:40:16.457Z,6.07
2023-03-26T18:42:52.356Z,6.06
2023-03-26T18:45:27.125Z,6.06
2023-03-26T18:47:56.694Z,6.05
2023-03-26T18:50:27.715Z,6.03
2023-03-26T18:52:57.989Z,6.05
2023-03-26T18:55:27.227Z,6.05
2023-03-26T18:57:53.534Z,6.04
2023-03-26T19:00:25.532Z,5.99
2023-03-26T19:03:03.542Z,5.93
2023-03-26T19:05:32.311Z,5.86
2023-03-26T19:08:03.434Z,5.79
2023-03-26T19:10:32.046Z,5.74
2023-03-26T19:13:01.419Z,5.68
2023-03-26T19:15:31.522Z,5.66
2023-03-26T19:18:07.067Z,5.61
2023-03-26T19:20:40.453Z,5.63
2023-03-26T19:23:09.659Z,5.61
2023-03-26T19:25:42.876Z,5.62
2023-03-26T19:28:17.852Z,5.60
2023-03-26T19:30:44.484Z,5.62
2023-03-26T19:33:18.882Z,5.59
2023-03-26T19:35:51.553Z,5.54
2023-03-26T19:38:29.323Z,5.49
2023-03-26T19:40:57.602Z,5.44
2023-03-26T19:43:25.630Z,5.40
2023-03-26T19:46:00.236Z,5.38
2023-03-26T19:48:45.315Z,5.34
2023-03-26T19:51:19.929Z,5.29
2023-03-26T19:53:53.962Z,5.26
2023-03-26T19:56:21.867Z,5.24
2023-03-26T19:58:49.878Z,5.22
2023-03-26T20:01:23.645Z,5.20
2023-03-26T20:03:59.901Z,5.17
2023-03-26T20:06:42.652Z,5.17
2023-03-26T20:09:11.582Z,5.13
2023-03-26T20:11:39.292Z,5.12
2023-03-26T20:14:14.736Z,5.10
2023-03-26T20:16:42.954Z,5.11
2023-03-26T20:19:10.971Z,5.10
2023-03-26T20:21:41.046Z,5.10
2023-03-26T20:24:14.520Z,5.08
2023-03-26T20:26:40.955Z,5.09
2023-03-26T20:29:07.458Z,5.11
2023-03-26T20:31:34.145Z,5.09
2023-03-26T20:34:00.584Z,5.08
2023-03-26T20:36:32.685Z,5.08
2023-03-26T20:38:59.250Z,5.07
2023-03-26T20:41:26.111Z,5.06
2023-03-26T20:43:52.723Z,5.03
2023-03-26T20:46:24.119Z,5.02
2023-03-26T20:48:57.851Z,5.01
2023-03-26T20:51:24.414Z,5.00
2023-03-26T20:53:50.755Z,4.98
2023-03-26T20:56:19.310Z,4.94
2023-03-26T20:58:50.852Z,4.92
2023-03-26T21:01:24.132Z,4.88
2023-03-26T21:03:50.821Z,4.82
2023-03-26T21:06:17.118Z,4.79
2023-03-26T21:08:44.788Z,4.78
2023-03-26T21:11:26.533Z,4.73
2023-03-26T21:14:01.179Z,4.67
2023-03-26T21:16:27.980Z,4.64
2023-03-26T21:18:54.705Z,4.57
2023-03-26T21:21:52.727Z,4.48
2023-03-26T21:24:32.963Z,4.42
2023-03-26T21:27:28.094Z,4.36
2023-03-26T21:29:55.551Z,4.38
2023-03-26T21:32:22.718Z,4.30
2023-03-26T21:34:58.838Z,4.25
2023-03-26T21:37:26.349Z,4.20
2023-03-26T21:39:52.946Z,4.15
2023-03-26T21:42:19.609Z,4.09
2023-03-26T21:44:46.738Z,4.08
2023-03-26T21:47:13.576Z,4.08
2023-03-26T21:49:40.148Z,4.07
2023-03-26T21:52:06.883Z,4.05
2023-03-26T21:54:33.671Z,4.05
2023-03-26T21:57:06.715Z,4.04
2023-03-26T22:00:00.672Z,4.06
2023-03-26T22:02:52.140Z,4.06
2023-03-26T22:05:31.154Z,4.10
2023-03-26T22:08:01.622Z,4.15
2023-03-26T22:10:28.635Z,4.18
2023-03-26T22:12:55.089Z,4.21
2023-03-26T22:15:21.692Z,4.25
2023-03-26T22:17:54.174Z,4.29
2023-03-26T22:20:25.438Z,4.33
2023-03-26T22:22:53.204Z,4.38
2023-03-26T22:25:21.777Z,4.38
2023-03-26T22:27:50.036Z,4.41
2023-03-26T22:30:17.039Z,4.42
2023-03-26T22:32:44.584Z,4.43
2023-03-26T22:35:11.390Z,4.44
2023-03-26T22:37:37.755Z,4.44
2023-03-26T22:40:09.019Z,4.42
2023-03-26T22:42:36.256Z,4.40
2023-03-26T22:45:03.988Z,4.37
2023-03-26T22:47:30.605Z,4.35
2023-03-26T22:49:57.198Z,4.32
2023-03-26T22:52:23.666Z,4.28
2023-03-26T22:54:50.014Z,4.28
2023-03-26T22:57:16.419Z,4.23
2023-03-26T22:59:42.964Z,4.22
2023-03-26T23:02:11.115Z,4.19
2023-03-26T23:04:37.688Z,4.17
2023-03-26T23:07:05.258Z,4.13
2023-03-26T23:09:31.668Z,4.07
2023-03-26T23:11:58.258Z,4.01
2023-03-26T23:14:24.713Z,3.97
2023-03-26T23:16:51.683Z,3.94
2023-03-26T23:19:18.122Z,3.91
2023-03-26T23:21:44.445Z,3.90
2023-03-26T23:24:10.783Z,3.88
2023-03-26T23:26:49.725Z,3.86
2023-03-26T23:29:17.374Z,3.87
2023-03-26T23:31:43.831Z,3.84
2023-03-26T23:34:10.855Z,3.86
2023-03-26T23:36:37.160Z,3.90
2023-03-26T23:39:04.748Z,3.92
2023-03-26T23:41:31.289Z,3.95
2023-03-26T23:43:57.624Z,3.97
2023-03-26T23:46:30.086Z,3.98
2023-03-26T23:49:01.991Z,3.97
2023-03-26T23:51:30.064Z,3.97
2023-03-26T23:53:56.896Z,3.97
2023-03-26T23:56:23.642Z,3.95
2023-03-26T23:58:50.177Z,3.94
